sensor_id;sensor_type;location;lat;lon;timestamp;P1;durP1;ratioP1;P2;durP2;ratioP2
84048;SDS011;74136;51.684;7.862;2023-12-20T00:02:27;40.65;;;11.48;;
84048;SDS011;74136;51.684;7.862;2023-12-20T00:04:52;33.13;;;10.27;;
84048;SDS011;74136;51.684;7.862;2023-12-20T00:07:18;40.83;;;10.63;;
84048;SDS011;74136;51.684;7.862;2023-12-20T00:09:43;43.63;;;11.98;;
84048;SDS011;74136;51.684;7.862;2023-12-20T00:12:09;46.55;;;11.70;;
84048;SDS011;74136;51.684;7.862;2023-12-20T00:14:35;46.95;;;12.63;;
84048;SDS011;74136;51.684;7.862;2023-12-20T00:17:01;44.65;;;14.32;;
84048;SDS011;74136;51.684;7.862;2023-12-20T00:19:26;49.40;;;15.40;;
84048;SDS011;74136;51.684;7.862;2023-12-20T00:21:51;64.95;;;18.08;;
84048;SDS011;74136;51.684;7.862;2023-12-20T00:24:21;48.95;;;13.73;;
84048;SDS011;74136;51.684;7.862;2023-12-20T00:26:46;61.58;;;19.08;;
84048;SDS011;74136;51.684;7.862;2023-12-20T00:29:12;62.10;;;16.25;;
84048;SDS011;74136;51.684;7.862;2023-12-20T00:31:37;58.60;;;16.77;;
84048;SDS011;74136;51.684;7.862;2023-12-20T00:34:03;63.40;;;16.95;;
84048;SDS011;74136;51.684;7.862;2023-12-20T00:36:28;67.22;;;20.13;;
84048;SDS011;74136;51.684;7.862;2023-12-20T00:38:53;62.33;;;16.40;;
84048;SDS011;74136;51.684;7.862;2023-12-20T00:41:19;61.30;;;16.67;;
84048;SDS011;74136;51.684;7.862;2023-12-20T00:43:44;63.30;;;15.43;;
84048;SDS011;74136;51.684;7.862;2023-12-20T00:46:10;60.42;;;14.52;;
84048;SDS011;74136;51.684;7.862;2023-12-20T00:48:35;60.65;;;15.07;;
84048;SDS011;74136;51.684;7.862;2023-12-20T00:51:01;70.38;;;18.63;;
84048;SDS011;74136;51.684;7.862;2023-12-20T00:53:28;63.40;;;15.70;;
84048;SDS011;74136;51.684;7.862;2023-12-20T00:55:54;66.90;;;17.55;;
84048;SDS011;74136;51.684;7.862;2023-12-20T00:58:19;71.80;;;17.08;;
84048;SDS011;74136;51.684;7.862;2023-12-20T01:00:44;62.67;;;14.98;;
84048;SDS011;74136;51.684;7.862;2023-12-20T01:03:10;51.70;;;13.95;;
84048;SDS011;74136;51.684;7.862;2023-12-20T01:05:35;57.35;;;14.40;;
84048;SDS011;74136;51.684;7.862;2023-12-20T01:08:01;53.22;;;12.30;;
84048;SDS011;74136;51.684;7.862;2023-12-20T01:10:28;52.42;;;11.95;;
84048;SDS011;74136;51.684;7.862;2023-12-20T01:12:54;50.83;;;14.20;;
84048;SDS011;74136;51.684;7.862;2023-12-20T01:15:21;52.10;;;15.93;;
84048;SDS011;74136;51.684;7.862;2023-12-20T01:17:47;41.70;;;11.02;;
84048;SDS011;74136;51.684;7.862;2023-12-20T01:20:14;52.80;;;14.95;;
84048;SDS011;74136;51.684;7.862;2023-12-20T01:22:42;53.35;;;14.98;;
84048;SDS011;74136;51.684;7.862;2023-12-20T01:25:07;42.88;;;11.20;;
84048;SDS011;74136;51.684;7.862;2023-12-20T01:27:33;53.53;;;15.55;;
84048;SDS011;74136;51.684;7.862;2023-12-20T01:29:59;52.08;;;13.30;;
84048;SDS011;74136;51.684;7.862;2023-12-20T01:32:24;38.63;;;10.40;;
84048;SDS011;74136;51.684;7.862;2023-12-20T01:34:49;42.67;;;12.88;;
84048;SDS011;74136;51.684;7.862;2023-12-20T01:37:15;42.88;;;12.93;;
84048;SDS011;74136;51.684;7.862;2023-12-20T01:39:41;34.90;;;11.02;;
84048;SDS011;74136;51.684;7.862;2023-12-20T01:42:06;35.60;;;9.95;;
84048;SDS011;74136;51.684;7.862;2023-12-20T01:44:32;36.60;;;12.30;;
84048;SDS011;74136;51.684;7.862;2023-12-20T01:46:57;33.95;;;8.95;;
84048;SDS011;74136;51.684;7.862;2023-12-20T01:49:22;33.45;;;10.15;;
84048;SDS011;74136;51.684;7.862;2023-12-20T01:51:48;32.78;;;10.10;;
84048;SDS011;74136;51.684;7.862;2023-12-20T01:54:15;26.63;;;8.88;;
84048;SDS011;74136;51.684;7.862;2023-12-20T01:56:41;32.92;;;9.60;;
84048;SDS011;74136;51.684;7.862;2023-12-20T01:59:07;35.25;;;10.90;;
84048;SDS011;74136;51.684;7.862;2023-12-20T02:01:34;34.63;;;10.38;;
84048;SDS011;74136;51.684;7.862;2023-12-20T02:04:00;35.20;;;8.77;;
84048;SDS011;74136;51.684;7.862;2023-12-20T02:06:28;29.88;;;9.30;;
84048;SDS011;74136;51.684;7.862;2023-12-20T02:08:57;33.97;;;10.40;;
84048;SDS011;74136;51.684;7.862;2023-12-20T02:11:23;40.47;;;12.35;;
84048;SDS011;74136;51.684;7.862;2023-12-20T02:13:50;31.52;;;10.48;;
84048;SDS011;74136;51.684;7.862;2023-12-20T02:16:15;33.15;;;11.30;;
84048;SDS011;74136;51.684;7.862;2023-12-20T02:18:41;33.97;;;11.23;;
84048;SDS011;74136;51.684;7.862;2023-12-20T02:21:07;35.90;;;11.63;;
84048;SDS011;74136;51.684;7.862;2023-12-20T02:23:36;29.17;;;9.88;;
84048;SDS011;74136;51.684;7.862;2023-12-20T02:26:02;31.83;;;10.10;;
84048;SDS011;74136;51.684;7.862;2023-12-20T02:28:29;31.50;;;8.40;;
84048;SDS011;74136;51.684;7.862;2023-12-20T02:30:54;23.27;;;7.60;;
84048;SDS011;74136;51.684;7.862;2023-12-20T02:33:20;37.13;;;11.05;;
84048;SDS011;74136;51.684;7.862;2023-12-20T02:35:45;27.40;;;8.93;;
84048;SDS011;74136;51.684;7.862;2023-12-20T02:38:11;27.92;;;8.13;;
84048;SDS011;74136;51.684;7.862;2023-12-20T02:40:36;21.30;;;7.40;;
84048;SDS011;74136;51.684;7.862;2023-12-20T02:43:01;24.52;;;8.68;;
84048;SDS011;74136;51.684;7.862;2023-12-20T02:45:27;20.27;;;6.55;;
84048;SDS011;74136;51.684;7.862;2023-12-20T02:47:52;21.90;;;7.97;;
84048;SDS011;74136;51.684;7.862;2023-12-20T02:50:17;23.60;;;7.72;;
84048;SDS011;74136;51.684;7.862;2023-12-20T02:52:47;22.95;;;6.25;;
84048;SDS011;74136;51.684;7.862;2023-12-20T02:55:12;23.95;;;6.95;;
84048;SDS011;74136;51.684;7.862;2023-12-20T02:57:38;20.75;;;6.72;;
84048;SDS011;74136;51.684;7.862;2023-12-20T03:00:07;23.90;;;6.55;;
84048;SDS011;74136;51.684;7.862;2023-12-20T03:02:38;26.33;;;8.52;;
84048;SDS011;74136;51.684;7.862;2023-12-20T03:05:04;23.52;;;6.57;;
84048;SDS011;74136;51.684;7.862;2023-12-20T03:07:31;26.55;;;7.30;;
84048;SDS011;74136;51.684;7.862;2023-12-20T03:09:57;29.30;;;8.88;;
84048;SDS011;74136;51.684;7.862;2023-12-20T03:12:22;28.35;;;7.32;;
84048;SDS011;74136;51.684;7.862;2023-12-20T03:14:48;32.40;;;8.23;;
84048;SDS011;74136;51.684;7.862;2023-12-20T03:17:14;30.00;;;8.65;;
84048;SDS011;74136;51.684;7.862;2023-12-20T03:19:40;34.72;;;10.35;;
84048;SDS011;74136;51.684;7.862;2023-12-20T03:22:06;34.10;;;11.13;;
84048;SDS011;74136;51.684;7.862;2023-12-20T03:24:31;24.48;;;7.72;;
84048;SDS011;74136;51.684;7.862;2023-12-20T03:26:56;27.80;;;8.18;;
84048;SDS011;74136;51.684;7.862;2023-12-20T03:29:23;25.50;;;8.23;;
84048;SDS011;74136;51.684;7.862;2023-12-20T03:31:51;24.27;;;8.05;;
84048;SDS011;74136;51.684;7.862;2023-12-20T03:34:17;28.95;;;9.52;;
84048;SDS011;74136;51.684;7.862;2023-12-20T03:36:42;28.80;;;9.95;;
84048;SDS011;74136;51.684;7.862;2023-12-20T03:39:08;25.98;;;6.63;;
84048;SDS011;74136;51.684;7.862;2023-12-20T03:41:35;27.40;;;7.72;;
84048;SDS011;74136;51.684;7.862;2023-12-20T03:44:00;28.90;;;7.45;;
84048;SDS011;74136;51.684;7.862;2023-12-20T03:46:25;25.83;;;8.35;;
84048;SDS011;74136;51.684;7.862;2023-12-20T03:48:51;21.67;;;6.53;;
84048;SDS011;74136;51.684;7.862;2023-12-20T03:51:16;33.33;;;9.68;;
84048;SDS011;74136;51.684;7.862;2023-12-20T03:53:42;26.48;;;10.30;;
84048;SDS011;74136;51.684;7.862;2023-12-20T03:56:07;20.70;;;6.20;;
84048;SDS011;74136;51.684;7.862;2023-12-20T03:58:33;31.42;;;6.95;;
84048;SDS011;74136;51.684;7.862;2023-12-20T04:00:58;36.33;;;9.32;;
84048;SDS011;74136;51.684;7.862;2023-12-20T04:03:23;33.90;;;9.70;;
84048;SDS011;74136;51.684;7.862;2023-12-20T04:05:49;19.75;;;6.22;;
84048;SDS011;74136;51.684;7.862;2023-12-20T04:08:14;22.40;;;7.97;;
84048;SDS011;74136;51.684;7.862;2023-12-20T04:10:40;23.10;;;6.32;;
84048;SDS011;74136;51.684;7.862;2023-12-20T04:13:08;19.45;;;6.95;;
84048;SDS011;74136;51.684;7.862;2023-12-20T04:15:33;28.10;;;9.85;;
84048;SDS011;74136;51.684;7.862;2023-12-20T04:17:59;29.85;;;8.20;;
84048;SDS011;74136;51.684;7.862;2023-12-20T04:20:24;33.53;;;8.23;;
84048;SDS011;74136;51.684;7.862;2023-12-20T04:22:50;27.27;;;7.32;;
84048;SDS011;74136;51.684;7.862;2023-12-20T04:25:15;24.40;;;5.95;;
84048;SDS011;74136;51.684;7.862;2023-12-20T04:27:41;28.67;;;6.80;;
84048;SDS011;74136;51.684;7.862;2023-12-20T04:30:09;22.25;;;6.53;;
84048;SDS011;74136;51.684;7.862;2023-12-20T04:32:34;25.77;;;6.75;;
84048;SDS011;74136;51.684;7.862;2023-12-20T04:35:00;29.48;;;7.50;;
84048;SDS011;74136;51.684;7.862;2023-12-20T04:37:25;27.00;;;6.35;;
84048;SDS011;74136;51.684;7.862;2023-12-20T04:39:50;30.15;;;7.45;;
84048;SDS011;74136;51.684;7.862;2023-12-20T04:42:15;34.67;;;11.00;;
84048;SDS011;74136;51.684;7.862;2023-12-20T04:44:41;33.22;;;8.85;;
84048;SDS011;74136;51.684;7.862;2023-12-20T04:47:06;33.63;;;10.27;;
84048;SDS011;74136;51.684;7.862;2023-12-20T04:49:31;35.53;;;14.70;;
84048;SDS011;74136;51.684;7.862;2023-12-20T04:51:58;43.38;;;11.05;;
84048;SDS011;74136;51.684;7.862;2023-12-20T04:54:23;33.65;;;10.07;;
84048;SDS011;74136;51.684;7.862;2023-12-20T04:56:49;40.22;;;10.55;;
84048;SDS011;74136;51.684;7.862;2023-12-20T04:59:15;29.60;;;10.60;;
84048;SDS011;74136;51.684;7.862;2023-12-20T05:01:40;34.40;;;11.85;;
84048;SDS011;74136;51.684;7.862;2023-12-20T05:04:06;34.85;;;10.27;;
84048;SDS011;74136;51.684;7.862;2023-12-20T05:06:32;35.28;;;10.10;;
84048;SDS011;74136;51.684;7.862;2023-12-20T05:08:57;45.05;;;15.68;;
84048;SDS011;74136;51.684;7.862;2023-12-20T05:11:22;44.03;;;14.80;;
84048;SDS011;74136;51.684;7.862;2023-12-20T05:13:47;32.15;;;10.38;;
84048;SDS011;74136;51.684;7.862;2023-12-20T05:16:13;41.40;;;14.10;;
84048;SDS011;74136;51.684;7.862;2023-12-20T05:18:39;33.97;;;11.18;;
84048;SDS011;74136;51.684;7.862;2023-12-20T05:21:05;42.53;;;13.68;;
84048;SDS011;74136;51.684;7.862;2023-12-20T05:23:30;43.55;;;12.82;;
84048;SDS011;74136;51.684;7.862;2023-12-20T05:25:56;42.33;;;15.57;;
84048;SDS011;74136;51.684;7.862;2023-12-20T05:28:21;36.25;;;11.98;;
84048;SDS011;74136;51.684;7.862;2023-12-20T05:30:46;36.88;;;15.25;;
84048;SDS011;74136;51.684;7.862;2023-12-20T05:33:12;33.60;;;11.40;;
84048;SDS011;74136;51.684;7.862;2023-12-20T05:35:38;33.20;;;11.10;;
84048;SDS011;74136;51.684;7.862;2023-12-20T05:38:03;38.90;;;14.50;;
84048;SDS011;74136;51.684;7.862;2023-12-20T05:40:29;42.38;;;11.38;;
84048;SDS011;74136;51.684;7.862;2023-12-20T05:42:54;46.78;;;17.40;;
84048;SDS011;74136;51.684;7.862;2023-12-20T05:45:19;41.42;;;12.40;;
84048;SDS011;74136;51.684;7.862;2023-12-20T05:47:45;46.65;;;15.48;;
84048;SDS011;74136;51.684;7.862;2023-12-20T05:50:10;49.00;;;15.57;;
84048;SDS011;74136;51.684;7.862;2023-12-20T05:52:35;50.00;;;17.25;;
84048;SDS011;74136;51.684;7.862;2023-12-20T05:55:01;43.47;;;12.82;;
84048;SDS011;74136;51.684;7.862;2023-12-20T05:57:26;39.58;;;14.82;;
84048;SDS011;74136;51.684;7.862;2023-12-20T05:59:52;45.42;;;14.40;;
84048;SDS011;74136;51.684;7.862;2023-12-20T06:02:17;36.00;;;14.30;;
84048;SDS011;74136;51.684;7.862;2023-12-20T06:04:43;43.90;;;13.00;;
84048;SDS011;74136;51.684;7.862;2023-12-20T06:07:13;40.97;;;13.88;;
84048;SDS011;74136;51.684;7.862;2023-12-20T06:09:39;42.35;;;17.52;;
84048;SDS011;74136;51.684;7.862;2023-12-20T06:12:04;50.33;;;13.45;;
84048;SDS011;74136;51.684;7.862;2023-12-20T06:14:31;45.35;;;13.43;;
84048;SDS011;74136;51.684;7.862;2023-12-20T06:16:57;35.63;;;14.10;;
84048;SDS011;74136;51.684;7.862;2023-12-20T06:19:22;41.65;;;14.05;;
84048;SDS011;74136;51.684;7.862;2023-12-20T06:21:48;36.63;;;12.90;;
84048;SDS011;74136;51.684;7.862;2023-12-20T06:24:13;34.28;;;13.95;;
84048;SDS011;74136;51.684;7.862;2023-12-20T06:26:39;47.58;;;16.10;;
84048;SDS011;74136;51.684;7.862;2023-12-20T06:29:04;34.95;;;11.95;;
84048;SDS011;74136;51.684;7.862;2023-12-20T06:31:29;34.80;;;12.10;;
84048;SDS011;74136;51.684;7.862;2023-12-20T06:33:55;50.00;;;15.07;;
84048;SDS011;74136;51.684;7.862;2023-12-20T06:36:23;44.30;;;15.07;;
84048;SDS011;74136;51.684;7.862;2023-12-20T06:38:49;49.88;;;16.13;;
84048;SDS011;74136;51.684;7.862;2023-12-20T06:41:15;45.13;;;16.67;;
84048;SDS011;74136;51.684;7.862;2023-12-20T06:43:40;50.97;;;15.07;;
84048;SDS011;74136;51.684;7.862;2023-12-20T06:46:06;47.55;;;18.05;;
84048;SDS011;74136;51.684;7.862;2023-12-20T06:48:31;41.70;;;14.50;;
84048;SDS011;74136;51.684;7.862;2023-12-20T06:50:57;38.40;;;12.68;;
84048;SDS011;74136;51.684;7.862;2023-12-20T06:53:24;37.25;;;11.52;;
84048;SDS011;74136;51.684;7.862;2023-12-20T06:55:50;40.40;;;14.45;;
84048;SDS011;74136;51.684;7.862;2023-12-20T06:58:15;44.50;;;15.27;;
84048;SDS011;74136;51.684;7.862;2023-12-20T07:00:41;43.50;;;15.32;;
84048;SDS011;74136;51.684;7.862;2023-12-20T07:03:07;34.22;;;13.23;;
84048;SDS011;74136;51.684;7.862;2023-12-20T07:05:32;36.17;;;13.05;;
84048;SDS011;74136;51.684;7.862;2023-12-20T07:07:58;46.78;;;13.52;;
84048;SDS011;74136;51.684;7.862;2023-12-20T07:10:24;44.00;;;15.93;;
84048;SDS011;74136;51.684;7.862;2023-12-20T07:12:49;43.50;;;14.43;;
84048;SDS011;74136;51.684;7.862;2023-12-20T07:15:16;43.28;;;13.82;;
84048;SDS011;74136;51.684;7.862;2023-12-20T07:17:41;42.08;;;14.20;;
84048;SDS011;74136;51.684;7.862;2023-12-20T07:20:07;41.83;;;15.23;;
84048;SDS011;74136;51.684;7.862;2023-12-20T07:22:35;46.92;;;13.80;;
84048;SDS011;74136;51.684;7.862;2023-12-20T07:25:01;47.58;;;20.45;;
84048;SDS011;74136;51.684;7.862;2023-12-20T07:27:27;45.13;;;16.88;;
84048;SDS011;74136;51.684;7.862;2023-12-20T07:29:52;42.75;;;15.82;;
84048;SDS011;74136;51.684;7.862;2023-12-20T07:32:17;53.78;;;16.17;;
84048;SDS011;74136;51.684;7.862;2023-12-20T07:34:43;35.10;;;13.52;;
84048;SDS011;74136;51.684;7.862;2023-12-20T07:37:09;38.72;;;11.68;;
84048;SDS011;74136;51.684;7.862;2023-12-20T07:39:41;41.03;;;14.82;;
84048;SDS011;74136;51.684;7.862;2023-12-20T07:42:08;40.28;;;13.05;;
84048;SDS011;74136;51.684;7.862;2023-12-20T07:44:34;36.55;;;11.13;;
84048;SDS011;74136;51.684;7.862;2023-12-20T07:47:01;46.00;;;12.65;;
84048;SDS011;74136;51.684;7.862;2023-12-20T07:49:27;40.63;;;12.38;;
84048;SDS011;74136;51.684;7.862;2023-12-20T07:51:56;35.22;;;12.73;;
84048;SDS011;74136;51.684;7.862;2023-12-20T07:54:22;35.63;;;13.02;;
84048;SDS011;74136;51.684;7.862;2023-12-20T07:56:48;32.75;;;10.10;;
84048;SDS011;74136;51.684;7.862;2023-12-20T07:59:14;31.20;;;11.35;;
84048;SDS011;74136;51.684;7.862;2023-12-20T08:01:39;32.78;;;10.95;;
84048;SDS011;74136;51.684;7.862;2023-12-20T08:04:04;35.88;;;13.05;;
84048;SDS011;74136;51.684;7.862;2023-12-20T08:06:30;34.67;;;10.48;;
84048;SDS011;74136;51.684;7.862;2023-12-20T08:08:57;34.05;;;11.20;;
84048;SDS011;74136;51.684;7.862;2023-12-20T08:11:23;36.17;;;12.18;;
84048;SDS011;74136;51.684;7.862;2023-12-20T08:13:48;32.58;;;10.50;;
84048;SDS011;74136;51.684;7.862;2023-12-20T08:16:14;36.15;;;11.35;;
84048;SDS011;74136;51.684;7.862;2023-12-20T08:18:42;30.67;;;10.13;;
84048;SDS011;74136;51.684;7.862;2023-12-20T08:21:07;33.33;;;11.55;;
84048;SDS011;74136;51.684;7.862;2023-12-20T08:23:33;31.10;;;10.77;;
84048;SDS011;74136;51.684;7.862;2023-12-20T08:26:03;34.60;;;12.75;;
84048;SDS011;74136;51.684;7.862;2023-12-20T08:28:32;27.25;;;9.88;;
84048;SDS011;74136;51.684;7.862;2023-12-20T08:30:57;30.05;;;11.82;;
84048;SDS011;74136;51.684;7.862;2023-12-20T08:33:23;33.45;;;12.85;;
84048;SDS011;74136;51.684;7.862;2023-12-20T08:35:48;29.50;;;9.95;;
84048;SDS011;74136;51.684;7.862;2023-12-20T08:38:13;35.40;;;13.57;;
84048;SDS011;74136;51.684;7.862;2023-12-20T08:40:39;35.47;;;11.25;;
84048;SDS011;74136;51.684;7.862;2023-12-20T08:43:05;34.08;;;11.73;;
84048;SDS011;74136;51.684;7.862;2023-12-20T08:45:30;39.25;;;13.07;;
84048;SDS011;74136;51.684;7.862;2023-12-20T08:47:55;46.78;;;15.02;;
84048;SDS011;74136;51.684;7.862;2023-12-20T08:50:22;38.83;;;9.82;;
84048;SDS011;74136;51.684;7.862;2023-12-20T08:52:47;36.90;;;12.13;;
84048;SDS011;74136;51.684;7.862;2023-12-20T08:55:12;33.15;;;10.35;;
84048;SDS011;74136;51.684;7.862;2023-12-20T08:57:39;37.20;;;13.27;;
84048;SDS011;74136;51.684;7.862;2023-12-20T09:00:05;25.75;;;10.32;;
84048;SDS011;74136;51.684;7.862;2023-12-20T09:02:32;37.30;;;14.48;;
84048;SDS011;74136;51.684;7.862;2023-12-20T09:05:01;37.08;;;11.43;;
84048;SDS011;74136;51.684;7.862;2023-12-20T09:07:26;34.67;;;10.43;;
84048;SDS011;74136;51.684;7.862;2023-12-20T09:09:54;32.05;;;11.50;;
84048;SDS011;74136;51.684;7.862;2023-12-20T09:12:20;37.90;;;13.52;;
84048;SDS011;74136;51.684;7.862;2023-12-20T09:14:46;20.80;;;8.60;;
84048;SDS011;74136;51.684;7.862;2023-12-20T09:17:12;37.45;;;13.88;;
84048;SDS011;74136;51.684;7.862;2023-12-20T09:19:38;39.20;;;13.15;;
84048;SDS011;74136;51.684;7.862;2023-12-20T09:22:04;38.80;;;11.75;;
84048;SDS011;74136;51.684;7.862;2023-12-20T09:24:30;42.03;;;13.60;;
84048;SDS011;74136;51.684;7.862;2023-12-20T09:26:56;32.35;;;12.32;;
84048;SDS011;74136;51.684;7.862;2023-12-20T09:29:21;33.42;;;11.27;;
84048;SDS011;74136;51.684;7.862;2023-12-20T09:31:46;32.65;;;11.77;;
84048;SDS011;74136;51.684;7.862;2023-12-20T09:34:13;37.97;;;13.52;;
84048;SDS011;74136;51.684;7.862;2023-12-20T09:36:39;36.03;;;10.82;;
84048;SDS011;74136;51.684;7.862;2023-12-20T09:39:11;29.92;;;11.00;;
84048;SDS011;74136;51.684;7.862;2023-12-20T09:41:37;24.83;;;10.63;;
84048;SDS011;74136;51.684;7.862;2023-12-20T09:44:07;30.10;;;9.45;;
84048;SDS011;74136;51.684;7.862;2023-12-20T09:46:37;32.08;;;9.27;;
84048;SDS011;74136;51.684;7.862;2023-12-20T09:49:06;35.45;;;11.43;;
84048;SDS011;74136;51.684;7.862;2023-12-20T09:51:32;27.90;;;10.88;;
84048;SDS011;74136;51.684;7.862;2023-12-20T09:53:58;41.38;;;9.82;;
84048;SDS011;74136;51.684;7.862;2023-12-20T09:56:26;36.20;;;10.50;;
84048;SDS011;74136;51.684;7.862;2023-12-20T09:58:51;31.35;;;11.65;;
84048;SDS011;74136;51.684;7.862;2023-12-20T10:01:16;34.80;;;12.50;;
84048;SDS011;74136;51.684;7.862;2023-12-20T10:03:44;32.00;;;10.02;;
84048;SDS011;74136;51.684;7.862;2023-12-20T10:06:10;41.15;;;14.25;;
84048;SDS011;74136;51.684;7.862;2023-12-20T10:08:35;41.70;;;12.10;;
84048;SDS011;74136;51.684;7.862;2023-12-20T10:11:02;32.22;;;11.60;;
84048;SDS011;74136;51.684;7.862;2023-12-20T10:13:30;30.17;;;12.93;;
84048;SDS011;74136;51.684;7.862;2023-12-20T10:15:55;32.75;;;13.32;;
84048;SDS011;74136;51.684;7.862;2023-12-20T10:18:21;36.60;;;13.18;;
84048;SDS011;74136;51.684;7.862;2023-12-20T10:20:47;36.92;;;11.45;;
84048;SDS011;74136;51.684;7.862;2023-12-20T10:23:13;34.08;;;13.80;;
84048;SDS011;74136;51.684;7.862;2023-12-20T10:25:40;32.83;;;10.40;;
84048;SDS011;74136;51.684;7.862;2023-12-20T10:30:36;30.13;;;10.10;;
84048;SDS011;74136;51.684;7.862;2023-12-20T10:33:01;32.85;;;11.00;;
84048;SDS011;74136;51.684;7.862;2023-12-20T10:35:27;37.25;;;14.57;;
84048;SDS011;74136;51.684;7.862;2023-12-20T10:37:53;34.55;;;14.40;;
84048;SDS011;74136;51.684;7.862;2023-12-20T10:40:21;37.10;;;12.85;;
84048;SDS011;74136;51.684;7.862;2023-12-20T10:42:47;34.83;;;10.80;;
84048;SDS011;74136;51.684;7.862;2023-12-20T10:45:13;36.95;;;9.57;;
84048;SDS011;74136;51.684;7.862;2023-12-20T10:50:11;32.08;;;11.30;;
84048;SDS011;74136;51.684;7.862;2023-12-20T10:52:36;36.25;;;11.98;;
84048;SDS011;74136;51.684;7.862;2023-12-20T10:55:03;36.28;;;10.07;;
84048;SDS011;74136;51.684;7.862;2023-12-20T10:57:28;37.03;;;12.13;;
84048;SDS011;74136;51.684;7.862;2023-12-20T10:59:55;32.78;;;11.32;;
84048;SDS011;74136;51.684;7.862;2023-12-20T11:02:25;34.13;;;13.48;;
84048;SDS011;74136;51.684;7.862;2023-12-20T11:05:04;36.25;;;15.20;;
84048;SDS011;74136;51.684;7.862;2023-12-20T11:07:37;38.75;;;14.20;;
84048;SDS011;74136;51.684;7.862;2023-12-20T11:10:22;31.05;;;11.25;;
84048;SDS011;74136;51.684;7.862;2023-12-20T11:13:08;35.55;;;13.13;;
84048;SDS011;74136;51.684;7.862;2023-12-20T11:18:05;33.22;;;11.88;;
84048;SDS011;74136;51.684;7.862;2023-12-20T11:20:35;31.85;;;12.32;;
84048;SDS011;74136;51.684;7.862;2023-12-20T11:23:02;25.80;;;10.77;;
84048;SDS011;74136;51.684;7.862;2023-12-20T11:25:28;35.38;;;13.63;;
84048;SDS011;74136;51.684;7.862;2023-12-20T11:28:11;38.65;;;13.80;;
84048;SDS011;74136;51.684;7.862;2023-12-20T11:30:41;34.17;;;14.80;;
84048;SDS011;74136;51.684;7.862;2023-12-20T11:33:16;32.15;;;13.63;;
84048;SDS011;74136;51.684;7.862;2023-12-20T11:35:46;26.98;;;12.00;;
84048;SDS011;74136;51.684;7.862;2023-12-20T11:38:14;31.48;;;12.02;;
84048;SDS011;74136;51.684;7.862;2023-12-20T11:40:41;35.45;;;11.15;;
84048;SDS011;74136;51.684;7.862;2023-12-20T11:43:08;31.90;;;14.93;;
84048;SDS011;74136;51.684;7.862;2023-12-20T11:45:34;30.73;;;11.00;;
84048;SDS011;74136;51.684;7.862;2023-12-20T11:48:00;27.45;;;13.68;;
84048;SDS011;74136;51.684;7.862;2023-12-20T11:50:28;44.88;;;17.33;;
84048;SDS011;74136;51.684;7.862;2023-12-20T11:52:56;33.30;;;12.38;;
84048;SDS011;74136;51.684;7.862;2023-12-20T11:55:24;35.95;;;13.48;;
84048;SDS011;74136;51.684;7.862;2023-12-20T11:57:51;30.38;;;12.43;;
84048;SDS011;74136;51.684;7.862;2023-12-20T12:00:17;34.17;;;13.38;;
84048;SDS011;74136;51.684;7.862;2023-12-20T12:02:43;33.97;;;13.00;;
84048;SDS011;74136;51.684;7.862;2023-12-20T12:05:08;26.10;;;11.95;;
84048;SDS011;74136;51.684;7.862;2023-12-20T12:07:34;34.15;;;12.55;;
84048;SDS011;74136;51.684;7.862;2023-12-20T12:10:00;31.83;;;11.40;;
84048;SDS011;74136;51.684;7.862;2023-12-20T12:12:25;27.88;;;11.23;;
84048;SDS011;74136;51.684;7.862;2023-12-20T12:14:52;27.77;;;11.98;;
84048;SDS011;74136;51.684;7.862;2023-12-20T12:17:18;36.95;;;13.07;;
84048;SDS011;74136;51.684;7.862;2023-12-20T12:19:43;27.10;;;8.90;;
84048;SDS011;74136;51.684;7.862;2023-12-20T12:22:11;25.08;;;9.95;;
84048;SDS011;74136;51.684;7.862;2023-12-20T12:24:41;27.75;;;9.07;;
84048;SDS011;74136;51.684;7.862;2023-12-20T12:27:06;24.25;;;8.88;;
84048;SDS011;74136;51.684;7.862;2023-12-20T12:29:33;24.38;;;7.28;;
84048;SDS011;74136;51.684;7.862;2023-12-20T12:31:59;30.10;;;10.30;;
84048;SDS011;74136;51.684;7.862;2023-12-20T12:34:24;22.40;;;8.60;;
84048;SDS011;74136;51.684;7.862;2023-12-20T12:36:53;28.33;;;9.65;;
84048;SDS011;74136;51.684;7.862;2023-12-20T12:39:18;18.05;;;8.02;;
84048;SDS011;74136;51.684;7.862;2023-12-20T12:41:44;23.88;;;8.10;;
84048;SDS011;74136;51.684;7.862;2023-12-20T12:44:09;28.85;;;11.02;;
84048;SDS011;74136;51.684;7.862;2023-12-20T12:46:34;36.72;;;13.52;;
84048;SDS011;74136;51.684;7.862;2023-12-20T12:49:00;31.92;;;10.90;;
84048;SDS011;74136;51.684;7.862;2023-12-20T12:51:25;26.80;;;10.25;;
84048;SDS011;74136;51.684;7.862;2023-12-20T12:53:51;31.25;;;15.10;;
84048;SDS011;74136;51.684;7.862;2023-12-20T12:56:18;29.05;;;10.52;;
84048;SDS011;74136;51.684;7.862;2023-12-20T12:58:43;33.58;;;14.48;;
84048;SDS011;74136;51.684;7.862;2023-12-20T13:01:09;34.03;;;13.50;;
84048;SDS011;74136;51.684;7.862;2023-12-20T13:03:35;30.75;;;11.65;;
84048;SDS011;74136;51.684;7.862;2023-12-20T13:06:00;27.15;;;11.52;;
84048;SDS011;74136;51.684;7.862;2023-12-20T13:08:26;35.70;;;12.60;;
84048;SDS011;74136;51.684;7.862;2023-12-20T13:10:52;35.80;;;12.75;;
84048;SDS011;74136;51.684;7.862;2023-12-20T13:13:18;28.55;;;10.75;;
84048;SDS011;74136;51.684;7.862;2023-12-20T13:15:44;33.70;;;14.60;;
84048;SDS011;74136;51.684;7.862;2023-12-20T13:18:15;28.70;;;11.15;;
84048;SDS011;74136;51.684;7.862;2023-12-20T13:20:41;35.67;;;18.13;;
84048;SDS011;74136;51.684;7.862;2023-12-20T13:23:07;37.25;;;13.65;;
84048;SDS011;74136;51.684;7.862;2023-12-20T13:25:33;30.92;;;11.77;;
84048;SDS011;74136;51.684;7.862;2023-12-20T13:27:58;35.40;;;12.10;;
84048;SDS011;74136;51.684;7.862;2023-12-20T13:30:24;29.55;;;13.38;;
84048;SDS011;74136;51.684;7.862;2023-12-20T13:32:50;31.63;;;15.30;;
84048;SDS011;74136;51.684;7.862;2023-12-20T13:35:16;34.58;;;18.73;;
84048;SDS011;74136;51.684;7.862;2023-12-20T13:37:42;34.08;;;13.57;;
84048;SDS011;74136;51.684;7.862;2023-12-20T13:40:09;35.63;;;14.13;;
84048;SDS011;74136;51.684;7.862;2023-12-20T13:42:35;33.40;;;15.45;;
84048;SDS011;74136;51.684;7.862;2023-12-20T13:45:00;27.63;;;11.25;;
84048;SDS011;74136;51.684;7.862;2023-12-20T13:47:26;30.50;;;11.77;;
84048;SDS011;74136;51.684;7.862;2023-12-20T13:49:51;33.45;;;11.90;;
84048;SDS011;74136;51.684;7.862;2023-12-20T13:52:17;27.60;;;10.88;;
84048;SDS011;74136;51.684;7.862;2023-12-20T13:54:43;35.25;;;11.63;;
84048;SDS011;74136;51.684;7.862;2023-12-20T13:57:12;36.47;;;13.27;;
84048;SDS011;74136;51.684;7.862;2023-12-20T13:59:37;41.90;;;13.13;;
84048;SDS011;74136;51.684;7.862;2023-12-20T14:02:04;27.27;;;14.52;;
84048;SDS011;74136;51.684;7.862;2023-12-20T14:04:29;38.20;;;12.20;;
84048;SDS011;74136;51.684;7.862;2023-12-20T14:06:56;31.50;;;13.07;;
84048;SDS011;74136;51.684;7.862;2023-12-20T14:09:23;31.98;;;15.00;;
84048;SDS011;74136;51.684;7.862;2023-12-20T14:11:48;29.05;;;11.68;;
84048;SDS011;74136;51.684;7.862;2023-12-20T14:14:13;35.47;;;12.43;;
84048;SDS011;74136;51.684;7.862;2023-12-20T14:16:40;27.02;;;11.07;;
84048;SDS011;74136;51.684;7.862;2023-12-20T14:19:08;29.88;;;11.07;;
84048;SDS011;74136;51.684;7.862;2023-12-20T14:21:34;36.38;;;11.75;;
84048;SDS011;74136;51.684;7.862;2023-12-20T14:24:00;30.90;;;14.32;;
84048;SDS011;74136;51.684;7.862;2023-12-20T14:26:25;32.40;;;13.10;;